Time;durP1;ratioP1;P1;durP2;ratioP2;P2;SDS_P1;SDS_P2;PMS_P1;PMS_P2;Temp;Humidity;BMP_temperature;BMP_pressure;BME280_temperature;BME280_humidity;BME280_pressure;Samples;Min_cycle;Max_cycle;Signal;HPM_P1;HPM_P2
2021/09/27 00:00:42;;;;;;;23.98;17.35;;;15.80;99.90;;;;;;5010622;28;20034;-83
2021/09/27 00:03:08;;;;;;;21.60;17.35;;;15.80;99.90;;;;;;5009571;28;20036;-83
2021/09/27 00:05:35;;;;;;;24.00;18.15;;;15.70;99.90;;;;;;5010788;28;20088;-83
2021/09/27 00:08:00;;;;;;;26.45;18.63;;;15.70;99.90;;;;;;5010083;28;20116;-83
2021/09/27 00:10:35;;;;;;;23.45;17.38;;;15.70;99.90;;;;;;5011243;28;20514;-83
2021/09/27 00:13:01;;;;;;;24.20;17.77;;;15.70;99.90;;;;;;5004472;28;20034;-83
2021/09/27 00:15:32;;;;;;;24.38;18.85;;;15.70;99.90;;;;;;5009974;28;20030;-83
2021/09/27 00:17:58;;;;;;;22.23;18.13;;;15.70;99.90;;;;;;5007778;28;20026;-83
2021/09/27 00:20:24;;;;;;;20.10;17.00;;;15.60;99.90;;;;;;5005401;28;20035;-83
2021/09/27 00:22:50;;;;;;;19.40;16.08;;;15.60;99.90;;;;;;5009332;28;20037;-83
2021/09/27 00:25:20;;;;;;;20.20;17.08;;;15.60;99.90;;;;;;5010482;28;20053;-83
2021/09/27 00:27:46;;;;;;;21.65;17.00;;;15.50;99.90;;;;;;5010677;28;20034;-83
2021/09/27 00:30:13;;;;;;;22.40;17.00;;;15.50;99.90;;;;;;5009241;28;20033;-84
2021/09/27 00:32:40;;;;;;;22.58;17.27;;;15.50;99.90;;;;;;5011168;28;20030;-84
2021/09/27 00:35:07;;;;;;;22.00;17.45;;;15.50;99.90;;;;;;5007998;28;20077;-83
2021/09/27 00:37:33;;;;;;;22.33;16.35;;;15.50;99.90;;;;;;5009602;28;20084;-83
2021/09/27 00:39:58;;;;;;;20.73;16.98;;;15.50;99.90;;;;;;5009864;28;20030;-83
2021/09/27 00:42:24;;;;;;;22.92;17.13;;;15.40;99.90;;;;;;4995924;28;20038;-83
2021/09/27 00:44:49;;;;;;;20.65;17.80;;;15.40;99.90;;;;;;5001860;28;20045;-83
2021/09/27 00:47:15;;;;;;;24.08;18.10;;;15.40;99.90;;;;;;5010835;28;20061;-84
2021/09/27 00:49:41;;;;;;;22.33;17.23;;;15.40;99.90;;;;;;5008166;28;20044;-83
2021/09/27 00:52:07;;;;;;;21.92;17.17;;;15.30;99.90;;;;;;5006204;28;20124;-84
2021/09/27 00:54:35;;;;;;;22.30;16.77;;;15.30;99.90;;;;;;5010374;28;20089;-84
2021/09/27 00:57:05;;;;;;;23.40;17.50;;;15.30;99.90;;;;;;4999612;28;20034;-83
2021/09/27 00:59:32;;;;;;;22.02;16.48;;;15.20;99.90;;;;;;5009216;28;20071;-83
2021/09/27 01:01:58;;;;;;;24.30;17.17;;;15.20;99.90;;;;;;5008393;28;20107;-84
2021/09/27 01:04:24;;;;;;;26.83;17.75;;;15.20;99.90;;;;;;5010054;28;20022;-83
2021/09/27 01:07:01;;;;;;;21.17;18.45;;;15.20;99.90;;;;;;5008505;28;20180;-84
2021/09/27 01:09:54;;;;;;;20.70;16.92;;;15.20;99.90;;;;;;5009330;28;20022;-83
2021/09/27 01:12:26;;;;;;;22.25;16.02;;;15.20;99.90;;;;;;5008728;28;20065;-83
2021/09/27 01:15:21;;;;;;;20.73;15.88;;;15.20;99.90;;;;;;5014220;28;20025;-83
2021/09/27 01:18:27;;;;;;;23.95;17.35;;;15.20;99.90;;;;;;5006743;28;20478;-83
2021/09/27 01:21:12;;;;;;;25.02;16.67;;;15.20;99.90;;;;;;5007800;28;20108;-83
2021/09/27 01:23:46;;;;;;;22.90;16.33;;;15.10;99.90;;;;;;5026743;28;20022;-83
2021/09/27 01:26:38;;;;;;;27.63;17.98;;;15.10;99.90;;;;;;5006845;28;20394;-83
2021/09/27 01:29:35;;;;;;;24.98;16.58;;;15.10;99.90;;;;;;5008033;28;20497;-83
2021/09/27 01:32:30;;;;;;;25.15;17.45;;;15.10;99.90;;;;;;5007308;28;20486;-83
2021/09/27 01:35:16;;;;;;;22.83;16.05;;;15.10;99.90;;;;;;4965705;28;20062;-83
2021/09/27 01:38:05;;;;;;;23.70;17.60;;;15.10;99.90;;;;;;5013254;28;20064;-84
2021/09/27 01:40:37;;;;;;;29.65;17.48;;;15.10;99.90;;;;;;5012382;28;20437;-84
2021/09/27 01:43:30;;;;;;;23.52;17.45;;;15.00;99.90;;;;;;5001595;28;20117;-83
2021/09/27 01:46:10;;;;;;;25.08;16.67;;;15.00;99.90;;;;;;5011938;28;20375;-84
2021/09/27 01:48:46;;;;;;;20.90;17.15;;;15.00;99.90;;;;;;5013422;28;20076;-83
2021/09/27 01:51:38;;;;;;;23.95;16.42;;;15.00;99.90;;;;;;5012371;28;20560;-83
2021/09/27 01:54:22;;;;;;;21.92;16.08;;;15.00;99.90;;;;;;5013683;28;20017;-83
2021/09/27 01:57:01;;;;;;;23.73;16.25;;;14.90;99.90;;;;;;5013485;28;20069;-83
2021/09/27 01:59:47;;;;;;;21.83;16.52;;;14.90;99.90;;;;;;5012863;28;20561;-84
2021/09/27 02:02:21;;;;;;;25.45;16.60;;;14.90;99.90;;;;;;4985023;28;20080;-83
2021/09/27 02:05:15;;;;;;;26.77;16.63;;;14.90;99.90;;;;;;5012899;28;20084;-83
2021/09/27 02:08:07;;;;;;;24.48;17.20;;;14.90;99.90;;;;;;5030029;28;20065;-83
2021/09/27 02:10:49;;;;;;;24.33;16.23;;;14.90;99.90;;;;;;5013558;28;20037;-83
2021/09/27 02:13:16;;;;;;;26.25;17.15;;;14.80;99.90;;;;;;5012444;28;20405;-83
2021/09/27 02:15:49;;;;;;;25.02;17.75;;;14.80;99.90;;;;;;5010015;28;20022;-83
2021/09/27 02:18:35;;;;;;;24.40;17.75;;;14.80;99.90;;;;;;5003616;28;20072;-83
2021/09/27 02:21:18;;;;;;;27.40;17.40;;;14.80;99.90;;;;;;5023042;28;20033;-83
2021/09/27 02:23:53;;;;;;;23.17;18.08;;;14.80;99.90;;;;;;5011826;28;20026;-83
2021/09/27 02:26:19;;;;;;;27.38;17.95;;;14.80;99.90;;;;;;5013214;28;20112;-83
2021/09/27 02:28:45;;;;;;;27.10;17.83;;;14.80;99.90;;;;;;5014238;28;20026;-83
2021/09/27 02:31:25;;;;;;;22.20;16.45;;;14.70;99.90;;;;;;5011438;28;20049;-83
2021/09/27 02:34:00;;;;;;;26.10;17.20;;;14.80;99.90;;;;;;5011837;28;20386;-84
2021/09/27 02:36:36;;;;;;;24.45;16.73;;;14.70;99.90;;;;;;5012428;28;20042;-84
2021/09/27 02:39:04;;;;;;;21.80;16.88;;;14.70;99.90;;;;;;5013132;28;20097;-83
2021/09/27 02:41:56;;;;;;;23.52;17.23;;;14.70;99.90;;;;;;5012584;28;20433;-84
2021/09/27 02:44:22;;;;;;;24.30;17.40;;;14.70;99.90;;;;;;5012171;28;20362;-84
2021/09/27 02:46:55;;;;;;;23.75;17.92;;;14.70;99.90;;;;;;5009001;28;20037;-83
2021/09/27 02:49:28;;;;;;;25.08;17.25;;;14.70;99.90;;;;;;5011404;28;20052;-84
2021/09/27 02:51:57;;;;;;;21.48;17.55;;;14.70;99.90;;;;;;5011572;28;20037;-84
2021/09/27 02:54:45;;;;;;;28.67;17.85;;;14.70;99.90;;;;;;5004724;28;20084;-84
2021/09/27 02:57:31;;;;;;;24.67;17.92;;;14.70;99.90;;;;;;5010095;28;20033;-83
2021/09/27 02:59:59;;;;;;;22.77;17.00;;;14.70;99.90;;;;;;5013373;28;20076;-83
2021/09/27 03:02:59;;;;;;;27.27;18.48;;;14.60;99.90;;;;;;5006188;28;20033;-84
2021/09/27 03:05:59;;;;;;;31.00;18.42;;;14.60;99.90;;;;;;5003652;28;20058;-83
2021/09/27 03:08:27;;;;;;;23.23;17.00;;;14.60;99.90;;;;;;5027739;28;20037;-84
2021/09/27 03:11:10;;;;;;;25.98;18.20;;;14.60;99.90;;;;;;5011149;28;20026;-84
2021/09/27 03:13:56;;;;;;;25.33;18.50;;;14.50;99.90;;;;;;5028598;28;20072;-84
2021/09/27 03:16:39;;;;;;;28.80;19.40;;;14.50;99.90;;;;;;5028410;28;20034;-84
2021/09/27 03:19:26;;;;;;;26.90;17.98;;;14.50;99.90;;;;;;5024348;28;20034;-84
2021/09/27 03:22:30;;;;;;;25.63;17.92;;;14.50;99.90;;;;;;5023796;28;20034;-84
2021/09/27 03:25:02;;;;;;;24.38;16.70;;;14.50;99.90;;;;;;5010697;28;20037;-84
2021/09/27 03:28:10;;;;;;;30.60;17.05;;;14.40;99.90;;;;;;5008869;28;20034;-84
2021/09/27 03:31:02;;;;;;;26.35;16.85;;;14.40;99.90;;;;;;4997050;28;20038;-83
2021/09/27 03:33:48;;;;;;;23.60;17.75;;;14.40;99.90;;;;;;4999132;28;20045;-83
2021/09/27 03:36:43;;;;;;;28.00;17.10;;;14.40;99.90;;;;;;5012790;28;20490;-84
2021/09/27 03:39:23;;;;;;;23.52;17.48;;;14.40;99.90;;;;;;5011776;28;20405;-84
2021/09/27 03:41:54;;;;;;;24.73;16.45;;;14.30;99.90;;;;;;5012742;28;20092;-84
2021/09/27 03:44:57;;;;;;;27.60;18.63;;;14.30;99.90;;;;;;5009020;28;20184;-84
2021/09/27 03:47:31;;;;;;;24.92;17.42;;;14.30;99.90;;;;;;5010145;28;20045;-84
2021/09/27 03:50:10;;;;;;;26.80;17.45;;;14.30;99.90;;;;;;5010488;28;20030;-84
2021/09/27 03:52:58;;;;;;;28.80;18.08;;;14.40;99.90;;;;;;5010980;28;20555;-85
2021/09/27 03:55:34;;;;;;;29.08;18.80;;;14.40;99.90;;;;;;5027385;28;20034;-85
2021/09/27 03:58:16;;;;;;;25.83;18.75;;;14.40;99.90;;;;;;5010689;28;20037;-84
2021/09/27 04:00:52;;;;;;;25.08;18.33;;;14.60;99.90;;;;;;5008762;28;20037;-84
2021/09/27 04:03:41;;;;;;;27.98;18.00;;;14.70;99.90;;;;;;5011282;28;20386;-84
2021/09/27 04:06:42;;;;;;;26.17;17.70;;;14.70;99.90;;;;;;5010876;28;20041;-85
2021/09/27 04:09:34;;;;;;;24.00;17.73;;;14.90;99.90;;;;;;5007614;28;20422;-85
2021/09/27 04:12:35;;;;;;;27.52;16.83;;;15.00;99.90;;;;;;5001744;28;20216;-84
2021/09/27 04:15:19;;;;;;;26.38;16.63;;;15.10;99.90;;;;;;4991882;28;20126;-85
2021/09/27 04:17:53;;;;;;;22.15;17.42;;;15.20;99.90;;;;;;5012423;28;20025;-85
2021/09/27 04:20:51;;;;;;;22.90;16.27;;;15.30;99.90;;;;;;5002681;28;20085;-84
2021/09/27 04:23:42;;;;;;;23.40;16.40;;;15.40;99.90;;;;;;5011356;28;20021;-87
2021/09/27 04:26:28;;;;;;;22.90;15.75;;;15.50;99.90;;;;;;5010669;28;20038;-84
2021/09/27 04:29:20;;;;;;;27.63;16.15;;;15.50;99.90;;;;;;5007012;28;20382;-84
2021/09/27 04:32:11;;;;;;;25.58;16.70;;;15.60;99.90;;;;;;5023813;28;20076;-84
2021/09/27 04:34:43;;;;;;;26.92;16.50;;;15.60;99.90;;;;;;5013177;28;20490;-84
2021/09/27 04:37:09;;;;;;;26.25;17.10;;;15.60;99.90;;;;;;5010603;28;20018;-83
2021/09/27 04:39:39;;;;;;;22.55;15.68;;;15.70;99.90;;;;;;4996692;28;20113;-85
2021/09/27 04:42:42;;;;;;;25.85;17.02;;;15.70;99.90;;;;;;5010665;28;20112;-85
2021/09/27 04:45:35;;;;;;;23.55;16.13;;;15.70;99.90;;;;;;5010344;28;20080;-84
2021/09/27 04:48:32;;;;;;;21.38;15.48;;;15.70;99.90;;;;;;5008450;28;20040;-84
2021/09/27 04:51:02;;;;;;;21.55;15.35;;;15.70;99.90;;;;;;5010111;28;20034;-84
2021/09/27 04:54:05;;;;;;;24.33;16.80;;;15.70;99.90;;;;;;5028039;28;20501;-83
2021/09/27 04:56:42;;;;;;;21.70;16.45;;;15.80;99.90;;;;;;5028667;28;20030;-84
2021/09/27 04:59:48;;;;;;;22.52;16.83;;;15.70;99.90;;;;;;5009946;28;20018;-84
2021/09/27 05:02:57;;;;;;;27.58;16.67;;;15.70;99.90;;;;;;4951120;29;20035;-83
2021/09/27 05:05:31;;;;;;;24.25;16.95;;;15.70;99.90;;;;;;4931197;28;20039;-86
2021/09/27 05:08:29;;;;;;;25.75;16.98;;;15.60;99.90;;;;;;5011155;28;20045;-85
2021/09/27 05:11:20;;;;;;;25.55;16.98;;;15.60;99.90;;;;;;5007861;28;20397;-83
2021/09/27 05:14:04;;;;;;;24.95;16.70;;;15.50;99.90;;;;;;5024214;28;20387;-85
2021/09/27 05:16:35;;;;;;;22.75;17.05;;;15.50;99.90;;;;;;5011034;28;20037;-85
2021/09/27 05:19:15;;;;;;;24.58;17.60;;;15.40;99.90;;;;;;5010264;28;20056;-85
2021/09/27 05:21:57;;;;;;;26.58;18.48;;;15.40;99.90;;;;;;5000838;28;20038;-86
2021/09/27 05:25:02;;;;;;;25.40;17.38;;;15.40;99.90;;;;;;5008411;28;20023;-85
2021/09/27 05:27:43;;;;;;;28.95;17.25;;;15.30;99.90;;;;;;5008938;28;20041;-85
2021/09/27 05:30:23;;;;;;;24.65;18.15;;;15.30;99.90;;;;;;5021953;28;20030;-85
2021/09/27 05:32:55;;;;;;;23.92;17.17;;;15.20;99.90;;;;;;5020575;28;20062;-85
2021/09/27 05:35:41;;;;;;;27.77;19.65;;;15.20;99.90;;;;;;5006994;28;20100;-85
2021/09/27 05:38:34;;;;;;;26.27;18.67;;;15.20;99.90;;;;;;5012966;28;20041;-85
2021/09/27 05:41:28;;;;;;;27.85;19.23;;;15.20;99.90;;;;;;5010384;28;20026;-84
2021/09/27 05:43:59;;;;;;;30.38;18.85;;;15.20;99.90;;;;;;5008081;28;20522;-85
2021/09/27 05:46:43;;;;;;;30.23;18.70;;;15.20;99.90;;;;;;5007680;28;20505;-84
2021/09/27 05:49:16;;;;;;;28.60;20.00;;;15.20;99.90;;;;;;4997452;28;20073;-84
2021/09/27 05:51:52;;;;;;;29.75;19.42;;;15.20;99.90;;;;;;5001825;28;20034;-85
2021/09/27 05:54:38;;;;;;;27.85;19.35;;;15.20;99.90;;;;;;5005106;28;20493;-83
2021/09/27 05:57:19;;;;;;;32.53;20.08;;;15.30;99.90;;;;;;5012241;28;20041;-84
2021/09/27 05:59:52;;;;;;;28.65;19.15;;;15.30;99.90;;;;;;5012816;28;20026;-84
2021/09/27 06:02:30;;;;;;;30.60;19.52;;;15.30;99.90;;;;;;5010240;28;20037;-84
2021/09/27 06:05:22;;;;;;;31.23;20.33;;;15.40;99.90;;;;;;5009692;28;20441;-84
2021/09/27 06:08:03;;;;;;;27.23;19.63;;;15.40;99.90;;;;;;4993149;28;20104;-84
2021/09/27 06:10:35;;;;;;;29.95;20.40;;;15.50;99.90;;;;;;5008792;28;20026;-84
2021/09/27 06:13:22;;;;;;;30.93;20.57;;;15.50;99.90;;;;;;5007753;28;20520;-84
2021/09/27 06:15:55;;;;;;;26.27;20.40;;;15.50;99.90;;;;;;5003855;28;20284;-84
2021/09/27 06:18:20;;;;;;;33.33;20.63;;;15.50;99.90;;;;;;5009572;28;20088;-83
2021/09/27 06:21:11;;;;;;;29.08;20.45;;;15.60;99.90;;;;;;5008821;28;20445;-84
2021/09/27 06:23:48;;;;;;;27.10;19.98;;;15.60;99.90;;;;;;5003649;28;20021;-85
2021/09/27 06:26:16;;;;;;;29.73;20.08;;;15.60;99.90;;;;;;5001421;28;20138;-84
2021/09/27 06:29:13;;;;;;;27.42;19.75;;;15.60;99.90;;;;;;5016302;28;20058;-84
2021/09/27 06:31:48;;;;;;;29.35;19.67;;;15.70;99.90;;;;;;5013736;28;21146;-84
2021/09/27 06:34:31;;;;;;;30.05;21.17;;;15.80;99.90;;;;;;5012721;28;20116;-84
2021/09/27 06:36:58;;;;;;;27.27;20.80;;;15.80;99.90;;;;;;5013999;28;20022;-85
2021/09/27 06:39:29;;;;;;;29.80;21.83;;;15.80;99.90;;;;;;5012720;28;20025;-85
2021/09/27 06:41:56;;;;;;;29.10;22.05;;;15.90;99.90;;;;;;5015051;28;20487;-84
2021/09/27 06:44:24;;;;;;;27.33;21.75;;;15.90;99.90;;;;;;5012721;28;20029;-85
2021/09/27 06:46:51;;;;;;;32.42;20.98;;;15.90;99.90;;;;;;5014525;28;20085;-84
2021/09/27 06:49:17;;;;;;;30.45;21.33;;;15.90;99.90;;;;;;5016100;28;20018;-84
2021/09/27 06:51:44;;;;;;;28.83;20.10;;;16.00;99.90;;;;;;5013134;28;20033;-84
2021/09/27 06:54:16;;;;;;;28.20;21.95;;;16.00;99.90;;;;;;5015747;28;20033;-84
2021/09/27 06:56:45;;;;;;;32.28;22.38;;;16.10;99.90;;;;;;5014985;28;20052;-84
2021/09/27 06:59:11;;;;;;;31.33;22.67;;;16.20;99.90;;;;;;5015332;28;20048;-84
2021/09/27 07:01:37;;;;;;;29.83;21.90;;;16.40;99.90;;;;;;5012318;28;20029;-84
2021/09/27 07:04:03;;;;;;;32.15;22.48;;;16.40;99.90;;;;;;5014008;28;20080;-84
2021/09/27 07:06:29;;;;;;;30.08;22.83;;;16.50;99.90;;;;;;5007947;28;20046;-84
2021/09/27 07:08:55;;;;;;;32.25;23.45;;;16.60;99.90;;;;;;5012757;28;20022;-84
2021/09/27 07:11:20;;;;;;;29.95;21.75;;;16.70;99.90;;;;;;5012694;28;20038;-84
2021/09/27 07:13:46;;;;;;;29.02;21.95;;;16.80;99.90;;;;;;5012768;28;20107;-84
2021/09/27 07:16:11;;;;;;;31.90;23.20;;;16.80;99.90;;;;;;5014110;28;20478;-84
2021/09/27 07:18:37;;;;;;;28.20;22.65;;;17.00;99.90;;;;;;5012344;28;20052;-84
2021/09/27 07:21:05;;;;;;;29.67;22.92;;;17.10;99.90;;;;;;5012256;28;20034;-84
2021/09/27 07:23:35;;;;;;;28.90;22.02;;;17.20;99.90;;;;;;5012412;28;20038;-84
2021/09/27 07:26:01;;;;;;;31.33;22.35;;;17.40;99.90;;;;;;5012927;28;20445;-84
2021/09/27 07:28:27;;;;;;;31.88;22.60;;;17.60;99.90;;;;;;5014124;28;20057;-83
2021/09/27 07:30:52;;;;;;;26.85;22.00;;;17.70;99.90;;;;;;5013087;28;20486;-84
2021/09/27 07:33:19;;;;;;;28.52;21.73;;;17.80;99.90;;;;;;5011922;28;20114;-84
2021/09/27 07:35:45;;;;;;;24.42;20.27;;;17.80;99.90;;;;;;5013131;28;20042;-84
2021/09/27 07:38:11;;;;;;;26.63;20.80;;;17.80;99.90;;;;;;5011429;28;20097;-84
2021/09/27 07:40:38;;;;;;;21.10;18.23;;;17.80;99.90;;;;;;5011777;28;20116;-83
2021/09/27 07:43:05;;;;;;;22.80;18.30;;;17.80;99.90;;;;;;5009455;28;20022;-84
2021/09/27 07:45:34;;;;;;;23.55;18.55;;;17.80;99.90;;;;;;5013157;28;20045;-84
2021/09/27 07:48:02;;;;;;;25.52;18.30;;;17.80;99.90;;;;;;5012681;28;20030;-84
2021/09/27 07:50:27;;;;;;;25.35;17.77;;;17.80;99.90;;;;;;5010100;28;20050;-84
2021/09/27 07:52:53;;;;;;;22.80;17.45;;;17.80;99.90;;;;;;5016096;28;20088;-83
2021/09/27 07:55:19;;;;;;;18.98;16.00;;;17.80;99.90;;;;;;5013835;28;20768;-84
2021/09/27 07:57:45;;;;;;;20.00;15.85;;;17.90;99.90;;;;;;5013055;28;20057;-84
2021/09/27 08:00:12;;;;;;;21.13;15.00;;;17.90;99.90;;;;;;5000396;28;20048;-84
2021/09/27 08:02:39;;;;;;;18.35;15.82;;;17.90;99.90;;;;;;5013196;28;20023;-84
2021/09/27 08:05:05;;;;;;;21.10;16.48;;;18.00;99.90;;;;;;5012466;28;20061;-84
2021/09/27 08:07:30;;;;;;;20.73;16.70;;;18.10;99.90;;;;;;5016155;28;20053;-84
2021/09/27 08:09:56;;;;;;;19.67;15.73;;;18.10;99.90;;;;;;5014855;28;20034;-84
2021/09/27 08:12:22;;;;;;;20.80;16.13;;;18.20;99.90;;;;;;5014139;28;20034;-84
2021/09/27 08:14:47;;;;;;;19.00;15.48;;;18.30;99.90;;;;;;5014760;28;20021;-83
2021/09/27 08:17:13;;;;;;;21.25;15.38;;;18.30;99.90;;;;;;5015018;28;20022;-81
2021/09/27 08:19:42;;;;;;;18.70;15.80;;;18.50;99.90;;;;;;5013237;28;20026;-81
2021/09/27 08:22:07;;;;;;;20.83;15.80;;;18.50;99.90;;;;;;5012583;28;20026;-84
2021/09/27 08:24:33;;;;;;;19.13;15.23;;;18.60;99.90;;;;;;5012703;28;20037;-83
2021/09/27 08:26:59;;;;;;;18.83;15.90;;;18.70;99.90;;;;;;5013618;28;20077;-85
2021/09/27 08:29:25;;;;;;;19.95;15.23;;;18.70;99.90;;;;;;5014020;28;20029;-85
2021/09/27 08:31:50;;;;;;;19.25;13.98;;;18.80;99.90;;;;;;5011734;28;20433;-84
2021/09/27 08:34:16;;;;;;;16.67;14.20;;;18.80;99.90;;;;;;5010088;28;20061;-84
2021/09/27 08:36:43;;;;;;;20.92;13.82;;;18.70;99.90;;;;;;5016484;28;20064;-84
2021/09/27 08:39:09;;;;;;;19.20;14.77;;;18.70;99.90;;;;;;5010331;28;20033;-85
2021/09/27 08:42:09;;;;;;;16.70;12.77;;;18.70;99.90;;;;;;5011924;28;20092;-84
2021/09/27 08:44:49;;;;;;;16.15;13.60;;;18.70;99.90;;;;;;5007750;28;20029;-85
2021/09/27 08:47:20;;;;;;;16.25;11.85;;;18.80;99.90;;;;;;5004378;28;20034;-84
2021/09/27 08:50:06;;;;;;;16.05;11.23;;;18.80;99.90;;;;;;5013542;28;20033;-83
2021/09/27 08:52:36;;;;;;;14.68;11.10;;;18.90;99.90;;;;;;5022394;28;21051;-83
2021/09/27 08:55:10;;;;;;;13.95;10.75;;;19.00;99.90;;;;;;5012408;28;20034;-84
2021/09/27 08:57:56;;;;;;;15.00;11.25;;;19.10;99.90;;;;;;5013947;28;20108;-86
2021/09/27 09:00:56;;;;;;;12.95;11.20;;;19.10;99.90;;;;;;5012153;28;20061;-84
2021/09/27 09:03:29;;;;;;;14.52;11.60;;;19.20;99.90;;;;;;5011928;28;20026;-83
2021/09/27 09:05:57;;;;;;;13.30;10.27;;;19.20;99.90;;;;;;5011989;28;20091;-85
2021/09/27 09:08:46;;;;;;;17.50;10.65;;;19.20;99.90;;;;;;5010843;28;20041;-84
2021/09/27 09:11:35;;;;;;;14.88;9.88;;;19.30;99.90;;;;;;5010158;28;20034;-84
2021/09/27 09:14:20;;;;;;;11.95;9.38;;;19.40;99.90;;;;;;5013919;28;20033;-85
2021/09/27 09:16:49;;;;;;;16.60;9.95;;;19.30;99.90;;;;;;4996310;28;20499;-84
2021/09/27 09:19:19;;;;;;;11.23;8.85;;;19.30;99.90;;;;;;5025370;28;20026;-85
2021/09/27 09:21:53;;;;;;;11.45;8.63;;;19.40;99.90;;;;;;5013383;28;20528;-85
2021/09/27 09:24:23;;;;;;;12.80;9.48;;;19.50;99.90;;;;;;5011192;28;20030;-84
2021/09/27 09:26:52;;;;;;;12.85;10.32;;;19.60;99.90;;;;;;5013587;28;20066;-85
2021/09/27 09:29:22;;;;;;;11.85;9.27;;;19.60;99.90;;;;;;5014034;28;20048;-85
2021/09/27 09:31:55;;;;;;;12.13;8.57;;;19.80;99.90;;;;;;5004875;28;20030;-84
2021/09/27 09:34:20;;;;;;;9.85;8.13;;;19.90;99.90;;;;;;5018760;28;20062;-85
2021/09/27 09:36:52;;;;;;;9.77;7.88;;;19.90;99.90;;;;;;5026141;28;20069;-84
2021/09/27 09:39:24;;;;;;;10.13;7.95;;;20.10;99.90;;;;;;5011584;28;20084;-84
2021/09/27 09:41:59;;;;;;;10.65;7.88;;;20.20;99.90;;;;;;5010659;28;20030;-84
2021/09/27 09:44:37;;;;;;;7.90;7.10;;;20.30;99.90;;;;;;5009789;28;20030;-84
2021/09/27 09:47:13;;;;;;;10.25;7.30;;;20.40;99.90;;;;;;5010319;28;20060;-84
2021/09/27 09:50:05;;;;;;;8.90;5.60;;;20.50;99.90;;;;;;5002007;28;20030;-84
2021/09/27 09:52:47;;;;;;;6.90;5.60;;;20.60;99.90;;;;;;5024336;28;20026;-84
2021/09/27 09:55:28;;;;;;;7.78;5.20;;;20.60;99.90;;;;;;5009256;28;20034;-84
2021/09/27 09:58:01;;;;;;;6.30;4.88;;;20.70;99.90;;;;;;5016092;28;20037;-82
2021/09/27 10:00:42;;;;;;;8.07;6.03;;;20.70;99.90;;;;;;5024738;28;20076;-85
2021/09/27 10:03:12;;;;;;;7.03;5.03;;;20.70;99.90;;;;;;5021034;28;20021;-84
2021/09/27 10:06:07;;;;;;;7.60;4.68;;;20.70;99.90;;;;;;5015263;28;20100;-84
2021/09/27 10:08:35;;;;;;;6.15;3.97;;;20.70;99.60;;;;;;4986980;28;20431;-84
2021/09/27 10:11:12;;;;;;;10.70;4.18;;;20.50;99.10;;;;;;4997569;28;20442;-84
2021/09/27 10:13:42;;;;;;;6.30;4.35;;;20.40;98.90;;;;;;5033663;28;20021;-83
2021/09/27 10:16:38;;;;;;;4.63;3.92;;;20.30;99.10;;;;;;5026792;28;20441;-84
2021/09/27 10:19:29;;;;;;;10.18;4.18;;;20.20;99.30;;;;;;4995388;28;20034;-84
2021/09/27 10:22:00;;;;;;;6.32;4.38;;;20.20;99.30;;;;;;4996316;28;20158;-84
2021/09/27 10:24:37;;;;;;;6.78;3.60;;;20.10;99.40;;;;;;4997404;28;20120;-84
2021/09/27 10:27:16;;;;;;;8.73;4.13;;;20.10;99.30;;;;;;5015454;28;20502;-84
2021/09/27 10:29:45;;;;;;;5.15;3.45;;;20.00;99.30;;;;;;5011674;28;20077;-87
2021/09/27 10:32:38;;;;;;;7.68;4.00;;;19.90;99.40;;;;;;5005964;28;20112;-84
2021/09/27 10:35:07;;;;;;;;;;;19.90;99.50;;;;;;5014999;28;20054;-83
2021/09/27 10:37:33;;;;;;;4.18;3.10;;;19.90;99.70;;;;;;5015287;28;19909;-84
2021/09/27 10:39:59;;;;;;;6.65;3.78;;;19.80;99.70;;;;;;5014342;28;20037;-84
2021/09/27 10:42:40;;;;;;;8.20;4.32;;;19.90;99.90;;;;;;5015599;28;20041;-84
2021/09/27 10:45:08;;;;;;;7.72;3.80;;;20.00;99.80;;;;;;5013540;28;20080;-83
2021/09/27 10:47:37;;;;;;;4.85;3.13;;;20.00;99.80;;;;;;5012867;28;20076;-83
2021/09/27 10:50:23;;;;;;;6.53;3.33;;;20.00;99.90;;;;;;5015298;28;20049;-84
2021/09/27 10:52:49;;;;;;;6.00;2.92;;;20.20;99.70;;;;;;5015396;28;20041;-84
2021/09/27 10:55:18;;;;;;;8.73;3.10;;;20.30;99.60;;;;;;5013692;28;20026;-85
2021/09/27 10:57:54;;;;;;;4.53;2.33;;;20.30;99.40;;;;;;5013760;28;20159;-84
2021/09/27 11:00:47;;;;;;;5.47;2.45;;;20.40;99.20;;;;;;5013390;28;20052;-84
2021/09/27 11:03:44;;;;;;;5.07;2.33;;;20.50;99.00;;;;;;5002892;28;20109;-85
2021/09/27 11:06:50;;;;;;;6.03;2.58;;;20.60;98.90;;;;;;5012364;28;20045;-84
2021/09/27 11:09:24;;;;;;;6.50;2.20;;;20.60;98.80;;;;;;5015637;28;20116;-85
2021/09/27 11:12:11;;;;;;;4.03;2.10;;;20.60;98.30;;;;;;5031231;28;20117;-83
2021/09/27 11:14:46;;;;;;;4.05;1.88;;;20.60;98.20;;;;;;5025419;28;20029;-84
2021/09/27 11:17:33;;;;;;;3.75;2.30;;;20.70;98.10;;;;;;5014417;28;20017;-83
2021/09/27 11:20:22;;;;;;;5.85;2.33;;;20.70;98.00;;;;;;5016578;28;20083;-85
2021/09/27 11:22:54;;;;;;;6.20;2.50;;;20.80;98.00;;;;;;5014616;28;20021;-84
2021/09/27 11:25:34;;;;;;;2.85;2.03;;;20.90;97.70;;;;;;5016334;28;20037;-85
2021/09/27 11:28:18;;;;;;;6.20;2.13;;;21.00;97.30;;;;;;5016414;28;20037;-84
2021/09/27 11:31:03;;;;;;;3.13;1.80;;;21.10;97.20;;;;;;5016972;28;20387;-85
2021/09/27 11:33:32;;;;;;;2.78;1.35;;;21.20;97.00;;;;;;5015503;28;20381;-85
2021/09/27 11:36:32;;;;;;;5.10;1.95;;;21.20;96.60;;;;;;5015352;28;20509;-84
2021/09/27 11:39:08;;;;;;;4.18;1.33;;;21.20;96.20;;;;;;5017253;28;20076;-85
2021/09/27 11:41:37;;;;;;;6.20;1.80;;;21.20;95.90;;;;;;5015266;28;20025;-83
2021/09/27 11:44:08;;;;;;;2.50;1.23;;;21.10;95.80;;;;;;5015051;28;20061;-84
2021/09/27 11:46:37;;;;;;;4.37;1.40;;;21.10;95.80;;;;;;5015158;28;20038;-83
2021/09/27 11:49:25;;;;;;;3.53;1.52;;;21.10;95.70;;;;;;5013606;28;20104;-84
2021/09/27 11:52:11;;;;;;;3.03;1.63;;;21.00;95.60;;;;;;5013287;28;20037;-84
2021/09/27 11:54:48;;;;;;;3.67;1.25;;;20.90;95.60;;;;;;5013082;28;20032;-83
2021/09/27 11:57:48;;;;;;;3.25;1.20;;;20.80;95.50;;;;;;5013442;28;20045;-84
2021/09/27 12:00:27;;;;;;;1.88;1.27;;;20.80;95.50;;;;;;4998463;28;20390;-83
2021/09/27 12:03:14;;;;;;;2.63;1.42;;;20.70;95.50;;;;;;4997865;28;20061;-83
2021/09/27 12:06:23;;;;;;;3.88;1.45;;;20.70;95.40;;;;;;5015546;28;20045;-83
2021/09/27 12:08:55;;;;;;;2.08;1.20;;;20.80;95.70;;;;;;4995142;28;20026;-84
2021/09/27 12:11:21;;;;;;;4.95;1.73;;;20.80;95.70;;;;;;4996648;28;20065;-83
2021/09/27 12:13:56;;;;;;;2.42;1.20;;;20.80;95.80;;;;;;5010812;28;20418;-83
2021/09/27 12:16:26;;;;;;;3.60;1.13;;;20.80;95.50;;;;;;4994908;28;20030;-84
2021/09/27 12:18:58;;;;;;;2.90;0.90;;;20.80;95.60;;;;;;5013189;28;20536;-83
2021/09/27 12:21:30;;;;;;;2.90;0.80;;;20.90;95.70;;;;;;5013671;28;20026;-83
2021/09/27 12:24:05;;;;;;;3.53;1.00;;;20.90;95.50;;;;;;5013395;28;20498;-83
2021/09/27 12:26:37;;;;;;;2.70;1.13;;;21.00;95.10;;;;;;5013981;28;20304;-84
2021/09/27 12:29:10;;;;;;;4.97;0.90;;;21.10;95.30;;;;;;5014633;28;20022;-84
2021/09/27 12:31:41;;;;;;;3.92;1.30;;;21.20;95.00;;;;;;5013303;28;20050;-83
2021/09/27 12:34:10;;;;;;;2.03;0.82;;;21.30;95.00;;;;;;5012899;28;20033;-85
2021/09/27 12:36:37;;;;;;;2.63;1.00;;;21.30;94.60;;;;;;5028225;28;20473;-84
2021/09/27 12:39:04;;;;;;;2.08;0.90;;;21.40;94.40;;;;;;5012766;28;20049;-84
2021/09/27 12:41:31;;;;;;;3.33;0.90;;;21.40;94.40;;;;;;5013350;28;20429;-84
2021/09/27 12:44:15;;;;;;;3.08;0.90;;;21.40;94.20;;;;;;5011880;28;20053;-84
2021/09/27 12:46:44;;;;;;;2.78;0.82;;;21.40;94.00;;;;;;5013067;28;20041;-84
2021/09/27 12:49:12;;;;;;;2.53;1.10;;;21.40;94.10;;;;;;5012886;28;20026;-84
2021/09/27 12:51:43;;;;;;;6.53;1.25;;;21.40;93.90;;;;;;5012920;28;20041;-84
2021/09/27 12:54:44;;;;;;;3.43;0.80;;;21.30;94.00;;;;;;5005331;28;20410;-84
2021/09/27 12:57:35;;;;;;;2.13;0.70;;;21.30;94.10;;;;;;5024122;28;20076;-84
2021/09/27 13:00:01;;;;;;;2.17;0.98;;;21.20;94.20;;;;;;5007474;28;20030;-84
2021/09/27 13:02:35;;;;;;;2.05;1.00;;;21.20;94.30;;;;;;5006708;28;20019;-83
2021/09/27 13:05:26;;;;;;;2.00;0.80;;;21.20;94.50;;;;;;5008588;28;20030;-84
2021/09/27 13:07:57;;;;;;;2.63;1.17;;;21.20;94.80;;;;;;5015862;28;20044;-84
2021/09/27 13:10:33;;;;;;;2.03;1.07;;;21.10;94.90;;;;;;5013213;28;20064;-85
2021/09/27 13:13:28;;;;;;;3.25;1.10;;;21.10;95.10;;;;;;5012355;28;20034;-83
2021/09/27 13:15:59;;;;;;;5.95;1.10;;;21.10;95.20;;;;;;5012465;28;20120;-84
2021/09/27 13:18:38;;;;;;;2.22;1.00;;;21.00;95.40;;;;;;5011839;28;20125;-84
2021/09/27 13:21:13;;;;;;;2.53;1.00;;;21.00;95.50;;;;;;5012453;28;20030;-85
2021/09/27 13:23:40;;;;;;;4.85;0.85;;;20.90;95.60;;;;;;5011471;28;20437;-85